Flight Track Log - Related Links

Times and Time Zones

All times are in EDT time to prevent confusion due to time zone crossing. See the SKW5500 flight status page for this flight to view local times or setup timezone preferences in your user account.

Time Position Orientation Groundspeed Altitude Reporting Facility
EDT Latitude Longitude Course Direction KTS MPH feet Rate Location/Type
Tue 05:28:24 PM 39.8333 -104.7833 255° West 214 246 7,900  Level Denver TRACON
Tue 05:29:24 PM 39.8333 -104.8833 270° West 256 295 9,700 2,286 Climbing Denver TRACON
Tue 05:30:09 PM 39.8353 -104.9436 272° West 273 314 11,900 3,084 Climbing Denver Center
Tue 05:31:00 PM 39.7707 -105.1491 259° West  Level FlightAware Approximate
Tue 05:31:11 PM 39.8286 -105.0464 265° West 272 313 15,200  Level Denver Center
Tue 05:32:00 PM 39.7520 -105.2703 259° West  Level FlightAware Approximate
Tue 05:32:13 PM 39.8075 -105.1475 255° West 289 333 17,600  Level Denver Center
Tue 05:33:00 PM 39.7376 -105.3914 255° West  Level FlightAware Approximate
Tue 05:33:15 PM 39.7817 -105.2703 255° West 339 390 18,600  Level Denver Center
Tue 05:34:17 PM 39.7539 -105.3994 254° West 374 430 19,600 1,171 Climbing Denver Center
Tue 05:35:18 PM 39.7256 -105.5378 255° West 396 456 21,000 1,171 Climbing Denver Center
Tue 05:36:20 PM 39.6947 -105.6889 255° West 403 464 22,000 484 Climbing Denver Center
Tue 05:37:22 PM 39.6769 -105.8350 261° West 388 447 22,000  Level Denver Center
Tue 05:38:24 PM 39.6553 -105.9778 259° West 398 458 22,000  Level Denver Center
Tue 05:39:26 PM 39.6331 -106.1194 259° West 398 458 22,000  Level Denver Center
Tue 05:40:27 PM 39.6153 -106.2478 260° West 393 452 22,000 -829 Level Denver Center
Tue 05:41:29 PM 39.5931 -106.3844 258° West 388 447 20,300 -2,032 Descending Denver Center
Tue 05:42:31 PM 39.5689 -106.5356 258° West 364 419 17,800 -2,032 Descending Denver Center
Tue 05:43:33 PM 39.5514 -106.6511 259° West 344 396 16,100 -1,016 Descending Denver Center
Tue 05:44:35 PM 39.5317 -106.7642 257° West 286 329 15,700 -968 Descending Denver Center
Tue 05:45:37 PM 39.5178 -106.8425 257° West 262 302 14,100 -774 Descending Denver Center
Tue 05:46:39 PM 39.5022 -106.9175 255° West 205 236 14,100 -145 Level Denver Center
Tue 05:47:41 PM 39.4561 -106.9708 222° Southwest 201 231 13,800 -484 Descending Denver Center
Tue 05:48:43 PM 39.4072 -106.9600 170° South 191 220 13,100 -871 Descending Denver Center
Tue 05:49:45 PM 39.3597 -106.9342 157° South 189 217 12,000 -1,065 Descending Denver Center

Login

Don't have an account? Register now (free) for customized features, flight alerts, and more!